createdAt,value
2019-04-10T00:01:48.948Z,100256.02
2019-04-10T00:04:21.089Z,100249.84
2019-04-10T00:06:52.907Z,100251.57
2019-04-10T00:09:25.289Z,100247.85
2019-04-10T00:11:57.123Z,100249.57
2019-04-10T00:14:29.023Z,100252.28
2019-04-10T00:17:00.946Z,100244.94
2019-04-10T00:19:32.937Z,100252.40
2019-04-10T00:22:06.182Z,100250.31
2019-04-10T00:24:37.968Z,100255.29
2019-04-10T00:27:10.387Z,100249.40
2019-04-10T00:29:43.228Z,100246.80
2019-04-10T00:32:16.133Z,100247.02
2019-04-10T00:34:48.090Z,100246.09
2019-04-10T00:37:26.230Z,100240.20
2019-04-10T00:39:53.442Z,100245.02
2019-04-10T00:42:26.101Z,100245.41
2019-04-10T00:44:59.469Z,100241.97
2019-04-10T00:47:31.689Z,100245.84
2019-04-10T00:50:04.254Z,100236.69
2019-04-10T00:52:36.578Z,100241.98
2019-04-10T00:55:08.606Z,100237.95
2019-04-10T00:57:41.189Z,100235.59
2019-04-10T01:00:14.929Z,100237.05
2019-04-10T01:02:47.103Z,100237.86
2019-04-10T01:05:19.394Z,100241.47
2019-04-10T01:07:51.946Z,100245.27
2019-04-10T01:10:23.641Z,100243.48
2019-04-10T01:12:56.579Z,100238.23
2019-04-10T01:15:28.812Z,100239.55
2019-04-10T01:18:00.689Z,100242.17
2019-04-10T01:20:33.380Z,100240.02
2019-04-10T01:23:05.826Z,100235.23
2019-04-10T01:25:37.503Z,100241.47
2019-04-10T01:28:09.882Z,100238.14
2019-04-10T01:30:42.325Z,100244.02
2019-04-10T01:33:14.484Z,100240.32
2019-04-10T01:35:46.694Z,100238.78
2019-04-10T01:38:19.629Z,100238.59
2019-04-10T01:40:51.751Z,100236.81
2019-04-10T01:43:24.511Z,100238.89
2019-04-10T01:45:56.195Z,100237.11
2019-04-10T01:48:28.154Z,100244.91
2019-04-10T01:51:01.169Z,100243.36
2019-04-10T01:53:33.547Z,100241.96
2019-04-10T01:56:05.531Z,100243.55
2019-04-10T01:58:38.102Z,100237.84
2019-04-10T02:01:14.671Z,100237.61
2019-04-10T02:03:46.629Z,100236.20
2019-04-10T02:06:18.891Z,100231.70
2019-04-10T02:08:51.550Z,100239.34
2019-04-10T02:11:23.967Z,100236.52
2019-04-10T02:13:56.870Z,100238.07
2019-04-10T02:16:28.896Z,100239.29
2019-04-10T02:19:01.654Z,100235.95
2019-04-10T02:21:34.040Z,100239.53
2019-04-10T02:24:05.694Z,100244.08
2019-04-10T02:26:38.054Z,100244.08
2019-04-10T02:29:09.723Z,100246.00
2019-04-10T02:31:41.688Z,100242.06
2019-04-10T02:34:14.917Z,100238.12
2019-04-10T02:36:47.021Z,100244.91
2019-04-10T02:39:28.957Z,100235.59
2019-04-10T02:41:54.371Z,100231.89
2019-04-10T02:44:28.339Z,100232.82
2019-04-10T02:46:59.829Z,100239.84
2019-04-10T02:49:32.064Z,100236.34
2019-04-10T02:52:04.157Z,100233.47
2019-04-10T02:54:37.486Z,100243.56
2019-04-10T02:57:09.497Z,100240.83
2019-04-10T02:59:43.168Z,100250.59
2019-04-10T03:02:16.197Z,100249.51
2019-04-10T03:04:49.123Z,100252.84
2019-04-10T03:07:22.131Z,100249.59
2019-04-10T03:10:05.773Z,100248.62
2019-04-10T03:12:28.425Z,100248.52
2019-04-10T03:15:01.132Z,100255.89
2019-04-10T03:17:36.686Z,100255.89
2019-04-10T03:20:09.957Z,100251.84
2019-04-10T03:22:43.119Z,100251.95
2019-04-10T03:25:14.963Z,100251.14
2019-04-10T03:27:46.956Z,100248.01
2019-04-10T03:30:21.029Z,100247.67
2019-04-10T03:33:09.382Z,100254.58
2019-04-10T03:35:45.215Z,100256.03
2019-04-10T03:38:18.164Z,100262.12
2019-04-10T03:40:49.968Z,100255.89
2019-04-10T03:43:21.833Z,100256.59
2019-04-10T03:45:55.112Z,100260.29
2019-04-10T03:48:27.209Z,100264.69
2019-04-10T03:50:59.058Z,100260.70
2019-04-10T03:53:32.070Z,100264.34
2019-04-10T03:56:03.709Z,100263.91
2019-04-10T03:58:35.679Z,100261.39
2019-04-10T04:01:07.427Z,100261.17
2019-04-10T04:03:40.513Z,100247.71
2019-04-10T04:06:12.254Z,100246.44
2019-04-10T04:08:44.346Z,100250.39
2019-04-10T04:11:15.991Z,100244.03
2019-04-10T04:13:48.012Z,100239.58
2019-04-10T04:16:20.957Z,100248.00
2019-04-10T04:18:53.365Z,100241.73
2019-04-10T04:21:25.854Z,100247.91
2019-04-10T04:23:57.575Z,100251.25
2019-04-10T04:26:29.591Z,100257.47
2019-04-10T04:29:03.032Z,100260.94
2019-04-10T04:31:35.403Z,100264.88
2019-04-10T04:34:07.170Z,100269.38
2019-04-10T04:36:39.131Z,100273.18
2019-04-10T04:39:19.869Z,100277.50
2019-04-10T04:41:45.621Z,100284.77
2019-04-10T04:44:18.103Z,100286.80
2019-04-10T04:46:50.570Z,100292.98
2019-04-10T04:49:22.536Z,100296.41
2019-04-10T04:51:54.683Z,100301.66
2019-04-10T04:54:26.588Z,100295.95
2019-04-10T04:56:58.442Z,100293.05
2019-04-10T04:59:30.500Z,100295.11
2019-04-10T05:02:02.157Z,100285.25
2019-04-10T05:04:35.467Z,100282.49
2019-04-10T05:07:08.262Z,100288.82
2019-04-10T05:09:40.790Z,100283.88
2019-04-10T05:12:13.468Z,100285.22
2019-04-10T05:14:46.210Z,100275.78
2019-04-10T05:17:18.409Z,100279.56
2019-04-10T05:19:50.466Z,100273.92
2019-04-10T05:22:22.383Z,100269.27
2019-04-10T05:24:54.458Z,100273.88
2019-04-10T05:27:27.947Z,100279.50
2019-04-10T05:30:00.002Z,100281.78
2019-04-10T05:32:32.857Z,100286.72
2019-04-10T05:35:08.483Z,100288.15
2019-04-10T05:37:40.129Z,100283.58
2019-04-10T05:40:12.297Z,100278.70
2019-04-10T05:42:44.967Z,100290.18
2019-04-10T05:45:17.016Z,100285.77
2019-04-10T05:47:48.788Z,100284.02
2019-04-10T05:50:21.546Z,100287.23
2019-04-10T05:52:53.938Z,100288.48
2019-04-10T05:55:26.641Z,100292.37
2019-04-10T05:57:59.445Z,100296.81
2019-04-10T06:00:32.565Z,100288.94
2019-04-10T06:03:04.562Z,100289.28
2019-04-10T06:05:36.432Z,100282.54
2019-04-10T06:08:08.594Z,100288.18
2019-04-10T06:10:41.576Z,100284.67
2019-04-10T06:13:13.443Z,100289.45
2019-04-10T06:15:45.460Z,100288.63
2019-04-10T06:18:18.746Z,100286.19
2019-04-10T06:20:50.516Z,100294.30
2019-04-10T06:23:23.386Z,100290.45
2019-04-10T06:25:56.326Z,100285.09
2019-04-10T06:28:30.600Z,100281.36
2019-04-10T06:31:01.395Z,100281.42
2019-04-10T06:33:33.999Z,100273.28
2019-04-10T06:36:05.860Z,100275.02
2019-04-10T06:38:37.366Z,100275.51
2019-04-10T06:41:10.448Z,100269.23
2019-04-10T06:43:43.431Z,100268.89
2019-04-10T06:46:15.334Z,100275.47
2019-04-10T06:48:47.938Z,100280.75
2019-04-10T06:51:22.332Z,100283.26
2019-04-10T06:54:00.833Z,100277.29
2019-04-10T06:56:27.287Z,100285.78
2019-04-10T06:59:00.350Z,100284.98
2019-04-10T07:01:41.072Z,100289.09
2019-04-10T07:04:08.005Z,100296.83
2019-04-10T07:06:50.048Z,100298.22
2019-04-10T07:09:13.933Z,100308.25
2019-04-10T07:11:47.930Z,100302.58
2019-04-10T07:14:20.607Z,100297.24
2019-04-10T07:16:52.780Z,100295.91
2019-04-10T07:19:24.590Z,100291.88
2019-04-10T07:21:58.832Z,100295.43
2019-04-10T07:24:34.538Z,100297.14
2019-04-10T07:27:04.627Z,100296.52
2019-04-10T07:29:36.393Z,100294.42
2019-04-10T07:32:10.637Z,100290.00
2019-04-10T07:34:42.520Z,100295.64
2019-04-10T07:37:17.709Z,100290.40
2019-04-10T07:39:47.530Z,100280.92
2019-04-10T07:42:26.738Z,100267.96
2019-04-10T07:44:56.262Z,100265.27
2019-04-10T07:47:27.237Z,100261.13
2019-04-10T07:49:59.898Z,100254.30
2019-04-10T07:52:33.029Z,100263.36
2019-04-10T07:55:06.674Z,100251.72
2019-04-10T07:57:38.582Z,100252.56
2019-04-10T08:00:12.446Z,100256.03
2019-04-10T08:02:44.469Z,100251.86
2019-04-10T08:05:16.653Z,100252.40
2019-04-10T08:07:48.597Z,100253.02
2019-04-10T08:10:20.565Z,100263.99
2019-04-10T08:12:54.193Z,100270.50
2019-04-10T08:15:27.265Z,100275.27
2019-04-10T08:17:58.911Z,100270.69
2019-04-10T08:20:30.729Z,100258.98
2019-04-10T08:23:03.616Z,100248.52
2019-04-10T08:25:35.423Z,100255.73
2019-04-10T08:28:07.484Z,100248.13
2019-04-10T08:30:39.788Z,100246.00
2019-04-10T08:33:11.996Z,100244.15
2019-04-10T08:35:43.635Z,100242.57
2019-04-10T08:38:15.556Z,100240.20
2019-04-10T08:40:48.203Z,100243.09
2019-04-10T08:43:20.266Z,100236.30
2019-04-10T08:45:53.427Z,100237.31
2019-04-10T08:48:27.612Z,100239.38
2019-04-10T08:50:58.952Z,100241.22
2019-04-10T08:53:30.821Z,100242.96
2019-04-10T08:56:02.513Z,100236.98
2019-04-10T08:58:35.023Z,100234.41
2019-04-10T09:01:09.078Z,100239.11
2019-04-10T09:03:44.311Z,100228.48
2019-04-10T09:06:17.433Z,100228.56
2019-04-10T09:08:50.956Z,100229.48
2019-04-10T09:11:25.451Z,100226.34
2019-04-10T09:13:56.898Z,100230.73
2019-04-10T09:16:28.870Z,100222.77
2019-04-10T09:19:01.380Z,100221.78
2019-04-10T09:21:33.179Z,100220.64
2019-04-10T09:24:05.143Z,100217.83
2019-04-10T09:26:38.205Z,100215.53
2019-04-10T09:29:10.094Z,100204.53
2019-04-10T09:31:41.955Z,100213.25
2019-04-10T09:34:13.892Z,100207.88
2019-04-10T09:36:45.884Z,100200.71
2019-04-10T09:39:17.650Z,100205.95
2019-04-10T09:41:50.151Z,100198.97
2019-04-10T09:44:22.921Z,100200.87
2019-04-10T09:46:55.714Z,100199.56
2019-04-10T09:49:35.636Z,100200.41
2019-04-10T09:52:00.754Z,100209.09
2019-04-10T09:54:32.966Z,100198.58
2019-04-10T09:57:04.994Z,100192.86
2019-04-10T09:59:39.570Z,100195.41
2019-04-10T10:02:11.201Z,100191.26
2019-04-10T10:04:43.880Z,100187.77
2019-04-10T10:07:16.420Z,100190.20
2019-04-10T10:09:49.261Z,100191.88
2019-04-10T10:12:21.174Z,100192.97
2019-04-10T10:14:53.880Z,100192.38
2019-04-10T10:17:25.717Z,100189.30
2019-04-10T10:19:57.685Z,100191.67
2019-04-10T10:22:30.914Z,100192.42
2019-04-10T10:25:03.161Z,100198.12
2019-04-10T10:27:36.473Z,100199.30
2019-04-10T10:30:09.912Z,100196.59
2019-04-10T10:32:42.315Z,100196.10
2019-04-10T10:35:15.041Z,100199.88
2019-04-10T10:37:47.064Z,100198.55
2019-04-10T10:40:19.357Z,100195.66
2019-04-10T10:42:51.903Z,100199.16
2019-04-10T10:45:24.894Z,100204.78
2019-04-10T10:47:56.814Z,100195.31
2019-04-10T10:50:29.024Z,100198.58
2019-04-10T10:53:00.817Z,100194.00
2019-04-10T10:55:33.579Z,100202.80
2019-04-10T10:58:06.361Z,100197.98
2019-04-10T11:00:38.999Z,100194.25
2019-04-10T11:03:11.010Z,100189.84
2019-04-10T11:05:44.424Z,100187.66
2019-04-10T11:08:17.460Z,100189.77
2019-04-10T11:10:54.059Z,100187.66
2019-04-10T11:13:22.769Z,100186.89
2019-04-10T11:15:54.623Z,100193.30
2019-04-10T11:18:26.691Z,100186.67
2019-04-10T11:21:04.117Z,100185.81
2019-04-10T11:23:31.805Z,100186.86
2019-04-10T11:26:04.664Z,100192.42
2019-04-10T11:28:36.889Z,100188.04
2019-04-10T11:31:09.281Z,100188.56
2019-04-10T11:33:41.227Z,100189.08
2019-04-10T11:36:14.916Z,100187.52
2019-04-10T11:38:46.811Z,100181.95
2019-04-10T11:41:19.359Z,100180.70
2019-04-10T11:43:53.351Z,100173.56
2019-04-10T11:46:30.992Z,100168.33
2019-04-10T11:49:00.690Z,100169.67
2019-04-10T11:51:35.660Z,100164.33
2019-04-10T11:54:10.917Z,100166.92
2019-04-10T11:56:39.054Z,100166.33
2019-04-10T11:59:12.350Z,100155.29
2019-04-10T12:01:46.370Z,100148.92
2019-04-10T12:04:20.049Z,100150.86
2019-04-10T12:06:55.021Z,100140.36
2019-04-10T12:10:16.980Z,100143.39
2019-04-10T12:11:57.902Z,100145.13
2019-04-10T12:14:30.027Z,100148.09
2019-04-10T12:17:03.260Z,100137.08
2019-04-10T12:19:35.027Z,100141.65
2019-04-10T12:22:07.487Z,100138.17
2019-04-10T12:24:40.456Z,100130.66
2019-04-10T12:27:12.763Z,100134.38
2019-04-10T12:29:45.484Z,100125.92
2019-04-10T12:32:18.684Z,100123.20
2019-04-10T12:34:50.867Z,100126.12
2019-04-10T12:37:23.594Z,100124.50
2019-04-10T12:39:55.764Z,100123.09
2019-04-10T12:42:28.149Z,100118.22
2019-04-10T12:44:59.999Z,100123.14
2019-04-10T12:47:32.241Z,100120.14
2019-04-10T12:50:08.072Z,100121.02
2019-04-10T12:52:40.898Z,100122.95
2019-04-10T12:55:13.077Z,100123.27
2019-04-10T12:57:45.416Z,100120.73
2019-04-10T13:00:20.039Z,100115.70
2019-04-10T13:02:52.441Z,100116.89
2019-04-10T13:05:25.120Z,100116.59
2019-04-10T13:07:56.760Z,100116.06
2019-04-10T13:10:29.509Z,100112.44
2019-04-10T13:13:01.975Z,100110.83
2019-04-10T13:15:33.550Z,100115.16
2019-04-10T13:18:05.979Z,100116.13
2019-04-10T13:20:37.889Z,100125.34
2019-04-10T13:23:10.788Z,100125.05
2019-04-10T13:25:43.880Z,100128.91
2019-04-10T13:28:17.005Z,100122.88
2019-04-10T13:30:53.769Z,100119.02
2019-04-10T13:33:22.601Z,100116.09
2019-04-10T13:35:55.350Z,100118.95
2019-04-10T13:38:32.345Z,100117.53
2019-04-10T13:41:01.688Z,100122.94
2019-04-10T13:43:33.909Z,100121.57
2019-04-10T13:46:06.769Z,100113.95
2019-04-10T13:48:39.705Z,100116.42
2019-04-10T13:51:13.007Z,100119.20
2019-04-10T13:53:44.699Z,100115.28
2019-04-10T13:56:17.031Z,100117.89
2019-04-10T13:58:49.082Z,100116.16
2019-04-10T14:01:23.071Z,100123.95
2019-04-10T14:03:54.710Z,100127.16
2019-04-10T14:06:27.493Z,100123.05
2019-04-10T14:09:17.622Z,100122.69
2019-04-10T14:11:35.333Z,100125.09
2019-04-10T14:14:07.095Z,100118.57
2019-04-10T14:16:39.101Z,100124.89
2019-04-10T14:19:12.908Z,100131.86
2019-04-10T14:21:45.079Z,100125.65
2019-04-10T14:24:17.875Z,100122.40
2019-04-10T14:26:53.538Z,100124.49
2019-04-10T14:29:24.788Z,100131.61
2019-04-10T14:32:00.872Z,100145.27
2019-04-10T14:34:34.519Z,100138.53
2019-04-10T14:37:07.597Z,100147.81
2019-04-10T14:39:40.831Z,100142.79
2019-04-10T14:42:14.066Z,100138.78
2019-04-10T14:44:46.421Z,100136.93
2019-04-10T14:47:19.179Z,100130.82
2019-04-10T14:49:53.376Z,100133.17
2019-04-10T14:52:25.377Z,100139.22
2019-04-10T14:54:57.509Z,100152.00
2019-04-10T14:57:30.763Z,100157.59
2019-04-10T15:00:02.642Z,100164.42
2019-04-10T15:02:36.887Z,100163.08
2019-04-10T15:05:09.979Z,100175.85
2019-04-10T15:07:42.794Z,100182.05
2019-04-10T15:10:14.997Z,100186.48
2019-04-10T15:12:47.934Z,100179.10
2019-04-10T15:15:20.549Z,100177.34
2019-04-10T15:17:52.225Z,100193.45
2019-04-10T15:20:24.998Z,100201.23
2019-04-10T15:22:56.765Z,100195.38
2019-04-10T15:25:28.834Z,100204.84
2019-04-10T15:28:00.703Z,100200.33
2019-04-10T15:30:32.898Z,100203.25
2019-04-10T15:33:04.639Z,100215.11
2019-04-10T15:35:36.493Z,100224.49
2019-04-10T15:38:09.450Z,100227.00
2019-04-10T15:40:42.167Z,100231.55
2019-04-10T15:43:14.133Z,100243.35
2019-04-10T15:45:46.348Z,100238.03
2019-04-10T15:48:18.826Z,100234.08
2019-04-10T15:50:51.696Z,100223.72
2019-04-10T15:53:24.402Z,100228.97
2019-04-10T15:55:56.507Z,100224.88
2019-04-10T15:58:28.272Z,100217.98
2019-04-10T16:01:01.161Z,100228.91
2019-04-10T16:03:33.125Z,100231.33
2019-04-10T16:06:06.077Z,100240.00
2019-04-10T16:08:38.617Z,100230.37
2019-04-10T16:11:28.156Z,100222.45
2019-04-10T16:14:03.085Z,100224.48
2019-04-10T16:16:37.540Z,100225.19
2019-04-10T16:19:20.493Z,100221.96
2019-04-10T16:21:52.728Z,100238.28
2019-04-10T16:24:24.925Z,100259.62
2019-04-10T16:26:57.875Z,100277.19
2019-04-10T16:29:29.606Z,100292.41
2019-04-10T16:32:02.118Z,100292.17
2019-04-10T16:34:34.513Z,100290.50
2019-04-10T16:37:06.528Z,100294.50
2019-04-10T16:39:38.608Z,100294.50
2019-04-10T16:42:10.666Z,100283.39
2019-04-10T16:44:43.874Z,100273.22
2019-04-10T16:47:15.714Z,100257.41
2019-04-10T16:49:48.656Z,100252.97
2019-04-10T16:52:20.956Z,100257.67
2019-04-10T16:54:53.443Z,100259.05
2019-04-10T16:57:25.418Z,100258.11
2019-04-10T16:59:59.143Z,100258.80
2019-04-10T17:02:31.719Z,100257.34
2019-04-10T17:05:03.949Z,100261.20
2019-04-10T17:07:35.993Z,100261.60
2019-04-10T17:10:17.713Z,100268.64
2019-04-10T17:12:44.541Z,100270.53
2019-04-10T17:15:17.877Z,100273.09
2019-04-10T17:17:50.676Z,100278.35
2019-04-10T17:20:24.487Z,100278.47
2019-04-10T17:22:56.591Z,100280.78
2019-04-10T17:25:28.591Z,100278.91
2019-04-10T17:28:01.779Z,100277.55
2019-04-10T17:30:33.884Z,100278.48
2019-04-10T17:33:07.101Z,100273.42
2019-04-10T17:35:39.915Z,100272.55
2019-04-10T17:38:12.111Z,100275.61
2019-04-10T17:40:50.107Z,100269.69
2019-04-10T17:43:18.930Z,100262.28
2019-04-10T17:45:51.040Z,100266.02
2019-04-10T17:48:22.858Z,100264.09
2019-04-10T17:50:55.327Z,100270.78
2019-04-10T17:53:27.268Z,100266.99
2019-04-10T17:56:00.056Z,100276.55
2019-04-10T17:58:31.862Z,100271.94
2019-04-10T18:01:05.309Z,100281.52
2019-04-10T18:03:46.323Z,100275.10
2019-04-10T18:06:11.047Z,100286.00
2019-04-10T18:08:43.159Z,100290.89
2019-04-10T18:11:16.220Z,100285.36
2019-04-10T18:13:49.255Z,100285.08
2019-04-10T18:16:22.065Z,100289.45
2019-04-10T18:18:53.986Z,100286.56
2019-04-10T18:21:25.838Z,100285.45
2019-04-10T18:23:59.985Z,100294.48
2019-04-10T18:26:32.027Z,100292.36
2019-04-10T18:29:03.881Z,100295.70
2019-04-10T18:31:36.784Z,100288.91
2019-04-10T18:34:11.001Z,100296.08
2019-04-10T18:36:42.860Z,100298.73
2019-04-10T18:39:17.165Z,100302.39
2019-04-10T18:41:49.127Z,100302.23
2019-04-10T18:44:21.194Z,100305.42
2019-04-10T18:46:52.859Z,100309.73
2019-04-10T18:49:24.718Z,100312.88
2019-04-10T18:51:56.684Z,100304.75
2019-04-10T18:54:29.775Z,100308.06
2019-04-10T18:57:02.053Z,100319.34
2019-04-10T18:59:44.938Z,100315.69
2019-04-10T19:02:21.528Z,100317.66
2019-04-10T19:05:01.497Z,100318.47
2019-04-10T19:07:34.325Z,100317.27
2019-04-10T19:10:06.393Z,100315.89
2019-04-10T19:12:39.108Z,100322.50
2019-04-10T19:15:10.820Z,100322.95
2019-04-10T19:17:43.545Z,100329.56
2019-04-10T19:20:15.825Z,100323.23
2019-04-10T19:22:48.595Z,100326.36
2019-04-10T19:25:20.981Z,100321.70
2019-04-10T19:27:52.947Z,100325.19
2019-04-10T19:30:26.738Z,100327.20
2019-04-10T19:32:59.568Z,100332.36
2019-04-10T19:35:31.293Z,100334.02
2019-04-10T19:38:03.262Z,100336.36
2019-04-10T19:40:36.968Z,100335.37
2019-04-10T19:43:10.234Z,100333.07
2019-04-10T19:45:43.914Z,100333.09
2019-04-10T19:48:17.147Z,100338.06
2019-04-10T19:50:49.886Z,100340.74
2019-04-10T19:53:21.804Z,100340.77
2019-04-10T19:55:55.982Z,100342.11
2019-04-10T19:58:28.191Z,100342.44
2019-04-10T20:01:01.098Z,100347.77
2019-04-10T20:03:33.900Z,100346.78
2019-04-10T20:06:06.143Z,100344.80
2019-04-10T20:08:37.811Z,100346.45
2019-04-10T20:11:10.803Z,100348.80
2019-04-10T20:13:42.954Z,100352.63
2019-04-10T20:16:15.296Z,100354.44
2019-04-10T20:18:48.725Z,100362.27
2019-04-10T20:21:20.671Z,100359.92
2019-04-10T20:23:52.751Z,100360.27
2019-04-10T20:26:25.242Z,100369.68
2019-04-10T20:28:57.630Z,100370.34
2019-04-10T20:31:31.329Z,100365.01
2019-04-10T20:34:03.688Z,100367.34
2019-04-10T20:36:37.273Z,100366.84
2019-04-10T20:39:12.748Z,100366.50
2019-04-10T20:41:51.993Z,100372.66
2019-04-10T20:44:18.799Z,100369.65
2019-04-10T20:46:50.872Z,100369.52
2019-04-10T20:49:22.640Z,100360.55
2019-04-10T20:51:55.721Z,100372.20
2019-04-10T20:54:27.410Z,100366.73
2019-04-10T20:56:59.447Z,100368.08
2019-04-10T20:59:33.357Z,100376.73
2019-04-10T21:02:06.165Z,100373.74
2019-04-10T21:04:37.906Z,100375.42
2019-04-10T21:07:10.484Z,100371.42
2019-04-10T21:09:43.879Z,100375.76
2019-04-10T21:12:19.312Z,100371.75
2019-04-10T21:14:49.446Z,100375.73
2019-04-10T21:17:22.643Z,100374.42
2019-04-10T21:19:54.399Z,100377.74
2019-04-10T21:22:26.510Z,100383.06
2019-04-10T21:24:58.632Z,100382.55
2019-04-10T21:27:31.980Z,100395.98
2019-04-10T21:30:05.403Z,100392.67
2019-04-10T21:32:47.936Z,100391.67
2019-04-10T21:35:30.541Z,100390.52
2019-04-10T21:38:02.640Z,100396.31
2019-04-10T21:40:34.932Z,100387.20
2019-04-10T21:43:07.036Z,100388.53
2019-04-10T21:45:39.177Z,100388.36
2019-04-10T21:48:11.001Z,100381.23
2019-04-10T21:50:43.939Z,100384.86
2019-04-10T21:53:16.429Z,100391.67
2019-04-10T21:55:48.359Z,100398.30
2019-04-10T21:58:20.475Z,100404.62
2019-04-10T22:00:57.187Z,100400.29
2019-04-10T22:03:31.596Z,100409.26
2019-04-10T22:06:21.898Z,100413.23
2019-04-10T22:08:56.159Z,100414.88
2019-04-10T22:11:28.730Z,100407.27
2019-04-10T22:14:00.530Z,100412.23
2019-04-10T22:16:33.703Z,100403.11
2019-04-10T22:19:05.926Z,100406.92
2019-04-10T22:21:39.710Z,100407.94
2019-04-10T22:24:11.658Z,100418.86
2019-04-10T22:26:44.544Z,100415.89
2019-04-10T22:29:17.625Z,100418.20
2019-04-10T22:31:49.585Z,100417.36
2019-04-10T22:34:21.387Z,100415.23
2019-04-10T22:36:54.027Z,100418.20
2019-04-10T22:39:25.989Z,100421.86
2019-04-10T22:41:58.858Z,100414.22
2019-04-10T22:44:37.536Z,100412.58
2019-04-10T22:47:05.177Z,100418.55
2019-04-10T22:49:37.102Z,100411.56
2019-04-10T22:52:08.948Z,100416.87
2019-04-10T22:54:40.853Z,100420.53
2019-04-10T22:57:12.710Z,100418.50
2019-04-10T22:59:44.704Z,100414.04
2019-04-10T23:02:16.609Z,100419.03
2019-04-10T23:04:48.807Z,100420.66
2019-04-10T23:07:20.567Z,100428.13
2019-04-10T23:09:52.949Z,100433.92
2019-04-10T23:12:24.738Z,100434.41
2019-04-10T23:14:56.771Z,100432.28
2019-04-10T23:17:28.589Z,100435.42
2019-04-10T23:20:00.707Z,100435.06
2019-04-10T23:22:33.340Z,100444.52
2019-04-10T23:25:07.909Z,100441.03
2019-04-10T23:27:39.874Z,100442.36
2019-04-10T23:30:18.680Z,100441.38
2019-04-10T23:32:51.380Z,100443.37
2019-04-10T23:35:23.310Z,100441.55
2019-04-10T23:37:55.285Z,100443.00
2019-04-10T23:40:27.372Z,100445.34
2019-04-10T23:43:07.711Z,100442.02
2019-04-10T23:45:33.521Z,100438.70
2019-04-10T23:48:06.583Z,100435.69
2019-04-10T23:50:38.623Z,100435.86
2019-04-10T23:53:10.469Z,100435.36
2019-04-10T23:55:43.456Z,100432.36
2019-04-10T23:58:15.965Z,100427.23
